Terminal Aerodrome Forecast
Issued by NWS

Home | Current Version | Previous Version | Text Only | Print | Product List | Glossary On
Versions: 1 2 3 4 5 6 7 8 9 10 11 12 13 14 15 16 17
372
FTPA31 PHFO 250532
TAFHTO
TAF
PHTO 250532Z 2506/2606 24005KT P6SM VCSH SCT020 SCT070
     FM250900 24007KT P6SM -SHRA FEW010 BKN020 OVC040
      TEMPO 2511/2515 2SM +SHRA SCT008 BKN015
     FM251900 10010KT P6SM -SHRA SCT025 OVC035
     FM260500 24006KT P6SM -SHRA SCT020 BKN040=

USA.gov is the U.S. government's official web portal to all federal, state and local government web resources and services.